Time;durP1;ratioP1;P1;durP2;ratioP2;P2;SDS_P1;SDS_P2;PMS_P1;PMS_P2;Temp;Humidity;BMP_temperature;BMP_pressure;BME280_temperature;BME280_humidity;BME280_pressure;Samples;Min_cycle;Max_cycle;Signal;HPM_P1;HPM_P2
2023/04/17 00:01:38;;;;;;;44.08;20.85;;;;;;;;;;5055955;28;20492;-71
2023/04/17 00:04:06;;;;;;;45.15;22.08;;;;;;;;;;5055765;28;20103;-71
2023/04/17 00:06:32;;;;;;;43.08;21.13;;;;;;;;;;5039144;28;20511;-70
2023/04/17 00:08:58;;;;;;;38.67;20.73;;;;;;;;;;5055525;28;20077;-71
2023/04/17 00:11:25;;;;;;;44.58;21.77;;;;;;;;;;5055695;28;20036;-71
2023/04/17 00:13:51;;;;;;;48.42;21.88;;;9.20;99.90;;;;;;5055653;28;20047;-71
2023/04/17 00:16:17;;;;;;;46.38;21.58;;;;;;;;;;5038919;28;20036;-72
2023/04/17 00:18:43;;;;;;;49.53;23.05;;;;;;;;;;5055111;28;20044;-71
2023/04/17 00:21:08;;;;;;;45.05;21.40;;;9.10;99.90;;;;;;5055614;28;20488;-71
2023/04/17 00:23:34;;;;;;;44.15;22.27;;;9.30;99.90;;;;;;5055706;28;20044;-71
2023/04/17 00:26:00;;;;;;;43.40;21.08;;;9.20;99.90;;;;;;5055460;28;20044;-71
2023/04/17 00:28:25;;;;;;;45.17;24.48;;;9.20;99.90;;;;;;5055065;28;20047;-71
2023/04/17 00:30:51;;;;;;;42.95;21.45;;;;;;;;;;5055552;28;20037;-71
2023/04/17 00:33:17;;;;;;;45.47;22.50;;;9.20;99.90;;;;;;5038514;28;20119;-71
2023/04/17 00:35:43;;;;;;;45.92;23.20;;;9.30;99.90;;;;;;5055371;28;20136;-71
2023/04/17 00:38:08;;;;;;;43.88;23.25;;;9.30;99.90;;;;;;5054699;28;20581;-71
2023/04/17 00:40:34;;;;;;;44.70;22.65;;;9.20;99.90;;;;;;5055393;28;20119;-71
2023/04/17 00:43:01;;;;;;;47.30;23.83;;;9.00;99.90;;;;;;5055060;28;20139;-71
2023/04/17 00:45:27;;;;;;;46.58;23.38;;;9.30;99.90;;;;;;5055104;28;20111;-71
2023/04/17 00:47:54;;;;;;;44.60;22.52;;;9.00;99.90;;;;;;5054737;28;20042;-71
2023/04/17 00:50:20;;;;;;;49.20;24.38;;;8.90;99.90;;;;;;5054764;28;20040;-71
2023/04/17 00:52:46;;;;;;;39.65;23.38;;;;;;;;;;5056068;28;20492;-71
2023/04/17 00:55:14;;;;;;;47.00;23.63;;;8.90;99.90;;;;;;5056235;28;20059;-71
2023/04/17 00:57:41;;;;;;;48.10;24.73;;;;;;;;;;5037955;28;20089;-71
2023/04/17 01:00:08;;;;;;;46.22;24.85;;;9.00;99.90;;;;;;5054724;28;20037;-71
2023/04/17 01:02:34;;;;;;;48.42;23.75;;;8.70;99.90;;;;;;5054627;28;20036;-71
2023/04/17 01:05:00;;;;;;;51.53;24.85;;;8.50;99.90;;;;;;5038360;28;20037;-70
2023/04/17 01:07:26;;;;;;;45.95;24.25;;;;;;;;;;5072509;28;20036;-71
2023/04/17 01:09:52;;;;;;;42.33;23.08;;;;;;;;;;5037733;28;20557;-71
2023/04/17 01:12:24;;;;;;;47.55;24.73;;;8.70;99.90;;;;;;5072439;28;20044;-71
2023/04/17 01:14:54;;;;;;;46.17;23.70;;;;;;;;;;5054361;28;20040;-71
2023/04/17 01:17:20;;;;;;;40.70;23.48;;;8.60;99.90;;;;;;5037471;28;20144;-71
2023/04/17 01:19:47;;;;;;;41.47;23.10;;;8.60;99.90;;;;;;5037680;28;20040;-71
2023/04/17 01:22:15;;;;;;;45.08;23.83;;;;;;;;;;5054398;28;20123;-71
2023/04/17 01:24:41;;;;;;;46.25;23.95;;;8.80;99.90;;;;;;5054164;28;20496;-71
2023/04/17 01:27:07;;;;;;;42.65;24.70;;;8.70;99.90;;;;;;5071940;28;20377;-71
2023/04/17 01:29:33;;;;;;;54.72;26.38;;;8.50;99.90;;;;;;5054291;28;20081;-70
2023/04/17 01:31:59;;;;;;;44.13;23.23;;;8.50;99.90;;;;;;5054245;28;20037;-71
2023/04/17 01:34:25;;;;;;;46.03;24.20;;;8.60;99.90;;;;;;5037343;28;20110;-71
2023/04/17 01:36:51;;;;;;;45.00;22.92;;;;;;;;;;5054084;28;20032;-70
2023/04/17 01:39:17;;;;;;;41.85;23.52;;;;;;;;;;5053753;28;20508;-71
2023/04/17 01:41:43;;;;;;;45.10;24.80;;;;;;;;;;5071993;28;20542;-71
2023/04/17 01:44:09;;;;;;;44.28;23.92;;;;;;;;;;5053777;28;20040;-71
2023/04/17 01:46:35;;;;;;;44.30;24.35;;;;;;;;;;5072011;28;20050;-70
2023/04/17 01:49:01;;;;;;;43.63;23.05;;;8.60;99.90;;;;;;5054226;28;20048;-71
2023/04/17 01:51:26;;;;;;;51.42;24.63;;;8.70;99.90;;;;;;5053984;28;20033;-71
2023/04/17 01:53:52;;;;;;;46.67;24.08;;;8.40;99.90;;;;;;5053672;28;20050;-71
2023/04/17 01:56:18;;;;;;;51.25;25.60;;;8.50;99.90;;;;;;5054111;28;20045;-71
2023/04/17 01:58:44;;;;;;;47.08;23.30;;;;;;;;;;5053278;28;20040;-71
2023/04/17 02:01:10;;;;;;;41.10;22.13;;;;;;;;;;5053825;28;20036;-71
2023/04/17 02:03:35;;;;;;;39.25;22.30;;;8.60;99.90;;;;;;5053084;28;20131;-71
2023/04/17 02:06:01;;;;;;;46.83;24.15;;;8.60;99.90;;;;;;5037260;28;20033;-71
2023/04/17 02:08:28;;;;;;;48.03;25.35;;;;;;;;;;5053364;28;20081;-71
2023/04/17 02:10:54;;;;;;;39.92;22.67;;;8.60;99.90;;;;;;5053640;28;20567;-70
2023/04/17 02:13:20;;;;;;;43.67;24.23;;;;;;;;;;5053713;28;20048;-71
2023/04/17 02:15:46;;;;;;;50.65;25.45;;;8.70;99.90;;;;;;5053579;28;20048;-71
2023/04/17 02:18:12;;;;;;;45.60;24.27;;;8.60;99.90;;;;;;5053203;28;20553;-71
2023/04/17 02:20:38;;;;;;;50.25;25.50;;;8.70;99.90;;;;;;5053345;28;20162;-71
2023/04/17 02:23:05;;;;;;;53.45;28.50;;;8.60;99.90;;;;;;5053633;28;20123;-70
2023/04/17 02:25:31;;;;;;;52.53;26.67;;;8.60;99.90;;;;;;5053455;28;20043;-71
2023/04/17 02:27:56;;;;;;;53.83;25.83;;;8.50;99.90;;;;;;5053104;28;20040;-71
2023/04/17 02:30:23;;;;;;;54.85;27.27;;;8.60;99.90;;;;;;5036735;28;20124;-71
2023/04/17 02:32:50;;;;;;;57.47;26.85;;;;;;;;;;5053397;28;20044;-70
2023/04/17 02:35:16;;;;;;;51.28;26.88;;;8.50;99.90;;;;;;5053419;28;20048;-71
2023/04/17 02:37:42;;;;;;;51.90;26.02;;;;;;;;;;5055204;28;20104;-71
2023/04/17 02:40:09;;;;;;;52.70;26.48;;;8.60;99.90;;;;;;5054443;28;20508;-71
2023/04/17 02:42:35;;;;;;;61.67;25.95;;;;;;;;;;5053259;28;20036;-71
2023/04/17 02:45:01;;;;;;;52.63;26.38;;;8.50;99.90;;;;;;5036974;28;20059;-71
2023/04/17 02:47:27;;;;;;;55.85;24.88;;;8.40;99.90;;;;;;5053415;28;20041;-71
2023/04/17 02:49:54;;;;;;;49.58;25.52;;;8.40;99.90;;;;;;5053211;28;20124;-71
2023/04/17 02:52:20;;;;;;;53.30;25.35;;;8.50;99.90;;;;;;5053302;28;20506;-70
2023/04/17 02:54:46;;;;;;;51.67;23.92;;;;;;;;;;5053106;28;20116;-71
2023/04/17 02:57:11;;;;;;;55.90;25.35;;;8.40;99.90;;;;;;5036266;28;20094;-71
2023/04/17 02:59:37;;;;;;;50.92;24.40;;;8.30;99.90;;;;;;5053369;28;20040;-71
2023/04/17 03:02:03;;;;;;;53.45;24.10;;;8.40;99.90;;;;;;5053267;28;20448;-71
2023/04/17 03:04:29;;;;;;;66.60;24.48;;;;;;;;;;5053066;28;20051;-71
2023/04/17 03:06:56;;;;;;;47.42;22.45;;;;;;;;;;5052781;28;20041;-71
2023/04/17 03:09:22;;;;;;;48.58;25.23;;;;;;;;;;5036579;28;20448;-71
2023/04/17 03:11:48;;;;;;;57.97;24.35;;;8.30;99.90;;;;;;5036507;28;20053;-71
2023/04/17 03:14:14;;;;;;;50.90;25.02;;;9.00;99.90;;;;;;5053802;28;20380;-71
2023/04/17 03:16:40;;;;;;;51.97;26.13;;;8.40;99.90;;;;;;5074663;28;20479;-70
2023/04/17 03:19:05;;;;;;;46.85;22.17;;;8.50;99.90;;;;;;5074608;28;20071;-71
2023/04/17 03:21:31;;;;;;;44.65;24.27;;;8.50;99.90;;;;;;5074710;28;20028;-71
2023/04/17 03:23:57;;;;;;;58.83;24.38;;;;;;;;;;5058178;22;20074;-68
2023/04/17 03:26:22;;;;;;;56.70;23.30;;;8.30;99.90;;;;;;5017061;28;20528;-68
2023/04/17 03:28:48;;;;;;;48.60;24.45;;;;;;;;;;5000269;28;20041;-68
2023/04/17 03:31:14;;;;;;;40.03;22.38;;;;;;;;;;5016829;28;20037;-68
2023/04/17 03:33:40;;;;;;;50.40;25.02;;;;;;;;;;5016349;28;20038;-68
2023/04/17 03:36:06;;;;;;;46.20;23.55;;;8.10;99.90;;;;;;5016928;28;20048;-68
2023/04/17 03:38:33;;;;;;;56.55;24.33;;;;;;;;;;5016221;28;20045;-68
2023/04/17 03:40:59;;;;;;;62.78;25.58;;;;;;;;;;5016768;28;20053;-68
2023/04/17 03:43:24;;;;;;;44.83;23.77;;;8.50;99.90;;;;;;5016229;28;20039;-68
2023/04/17 03:45:50;;;;;;;52.78;24.27;;;8.30;99.90;;;;;;5016526;28;20128;-68
2023/04/17 03:48:15;;;;;;;80.43;25.63;;;8.20;99.90;;;;;;5016687;28;20049;-68
2023/04/17 03:50:41;;;;;;;80.10;24.95;;;;;;;;;;5016484;28;20497;-68
2023/04/17 03:53:07;;;;;;;48.35;23.52;;;;;;;;;;5016226;28;20045;-68
2023/04/17 03:55:34;;;;;;;84.40;26.20;;;;;;;;;;5016304;28;20719;-68
2023/04/17 03:58:00;;;;;;;98.85;29.08;;;;;;;;;;4999524;28;20054;-68
2023/04/17 04:00:27;;;;;;;74.18;28.80;;;;;;;;;;5016296;28;20068;-68
2023/04/17 04:02:53;;;;;;;58.38;27.48;;;8.40;99.90;;;;;;5016029;28;20041;-68
2023/04/17 04:05:18;;;;;;;102.53;28.35;;;8.30;99.90;;;;;;5016138;28;20412;-68
2023/04/17 04:07:44;;;;;;;65.57;27.85;;;;;;;;;;4999812;28;20033;-68
2023/04/17 04:10:10;;;;;;;131.05;29.95;;;;;;;;;;4999524;28;20052;-68
2023/04/17 04:12:36;;;;;;;80.63;27.38;;;;;;;;;;4999506;28;20132;-68
2023/04/17 04:15:02;;;;;;;119.10;28.40;;;8.30;99.90;;;;;;5015853;28;20045;-68
2023/04/17 04:17:28;;;;;;;129.75;25.40;;;8.20;99.90;;;;;;5014936;28;20079;-68
2023/04/17 04:19:53;;;;;;;184.15;29.73;;;8.30;99.90;;;;;;4999373;28;20041;-68
2023/04/17 04:22:20;;;;;;;213.05;30.98;;;;;;;;;;5015244;28;20035;-68
2023/04/17 04:24:46;;;;;;;184.82;30.20;;;8.10;99.90;;;;;;5015848;28;20052;-67
2023/04/17 04:27:11;;;;;;;172.95;31.55;;;8.20;99.90;;;;;;5014537;28;20045;-68
2023/04/17 04:29:37;;;;;;;165.32;27.63;;;8.20;99.90;;;;;;5015514;28;20041;-68
2023/04/17 04:32:04;;;;;;;208.25;32.08;;;;;;;;;;4999317;28;20084;-68
2023/04/17 04:34:30;;;;;;;76.93;26.80;;;;;;;;;;5015644;28;20037;-68
2023/04/17 04:36:56;;;;;;;97.35;29.83;;;;;;;;;;5015339;28;20041;-68
2023/04/17 04:39:22;;;;;;;137.80;33.25;;;;;;;;;;5015099;28;20045;-68
2023/04/17 04:41:51;;;;;;;106.65;27.42;;;;;;;;;;5015320;28;20519;-68
2023/04/17 04:44:18;;;;;;;78.70;24.50;;;8.10;99.90;;;;;;5014941;28;20037;-67
2023/04/17 04:46:44;;;;;;;95.40;23.42;;;;;;;;;;5015032;28;20042;-67
2023/04/17 04:49:09;;;;;;;137.90;26.45;;;8.10;99.90;;;;;;5015169;28;20041;-67
2023/04/17 04:51:35;;;;;;;169.52;31.10;;;7.90;99.90;;;;;;5014651;28;20100;-67
2023/04/17 04:54:01;;;;;;;109.22;25.95;;;8.00;99.90;;;;;;5014871;28;20048;-67
2023/04/17 04:56:27;;;;;;;153.80;27.33;;;;;;;;;;4998867;28;20049;-68
2023/04/17 04:58:54;;;;;;;114.38;27.63;;;;;;;;;;5014550;28;20072;-67
2023/04/17 05:01:19;;;;;;;203.32;28.70;;;7.80;99.90;;;;;;5014545;28;20115;-68
2023/04/17 05:03:45;;;;;;;155.25;27.90;;;7.90;99.90;;;;;;5013308;28;20132;-68
2023/04/17 05:06:12;;;;;;;149.35;27.25;;;;;;;;;;4997039;28;20041;-68
2023/04/17 05:08:39;;;;;;;132.43;27.55;;;7.90;99.90;;;;;;5013349;28;20049;-67
2023/04/17 05:11:05;;;;;;;109.60;25.08;;;8.00;99.90;;;;;;4998538;28;20481;-67
2023/04/17 05:13:30;;;;;;;109.03;25.27;;;8.10;99.90;;;;;;5014950;28;20044;-67
2023/04/17 05:15:56;;;;;;;134.85;26.10;;;7.80;99.90;;;;;;5014765;28;20561;-67
2023/04/17 05:18:22;;;;;;;189.88;34.75;;;;;;;;;;5014419;28;20132;-68
2023/04/17 05:20:49;;;;;;;134.68;28.38;;;7.90;99.90;;;;;;4998169;28;20033;-67
2023/04/17 05:23:15;;;;;;;101.45;26.20;;;8.10;99.90;;;;;;5014391;28;20041;-68
2023/04/17 05:25:41;;;;;;;157.05;31.80;;;8.20;99.90;;;;;;5014646;28;20064;-67
2023/04/17 05:28:07;;;;;;;195.85;33.78;;;;;;;;;;4997872;28;20060;-67
2023/04/17 05:30:33;;;;;;;103.07;26.65;;;8.20;99.90;;;;;;5014459;28;20046;-67
2023/04/17 05:32:59;;;;;;;98.45;28.08;;;;;;;;;;5014287;28;20052;-67
2023/04/17 05:35:26;;;;;;;102.10;29.27;;;8.10;99.90;;;;;;5014522;28;20085;-67
2023/04/17 05:37:52;;;;;;;159.38;31.67;;;8.00;99.90;;;;;;5013044;28;20042;-67
2023/04/17 05:40:18;;;;;;;119.20;32.83;;;8.10;99.90;;;;;;5014428;28;20084;-68
2023/04/17 05:42:43;;;;;;;102.38;31.40;;;8.30;99.90;;;;;;5014265;28;20068;-67
2023/04/17 05:45:16;;;;;;;164.32;32.83;;;8.00;99.90;;;;;;5014366;28;20072;-67
2023/04/17 05:47:42;;;;;;;167.45;37.83;;;;;;;;;;5014024;28;20130;-67
2023/04/17 05:50:08;;;;;;;126.97;31.75;;;8.10;99.90;;;;;;5014129;28;20077;-67
2023/04/17 05:52:35;;;;;;;141.57;32.53;;;8.30;99.90;;;;;;5014163;28;20073;-67
2023/04/17 05:55:01;;;;;;;205.30;37.60;;;8.40;99.90;;;;;;5014466;28;20076;-67
2023/04/17 05:57:27;;;;;;;129.27;32.15;;;8.20;99.90;;;;;;5023467;28;20045;-68
2023/04/17 05:59:52;;;;;;;128.48;33.13;;;8.10;99.90;;;;;;5014169;28;20029;-68
2023/04/17 06:02:18;;;;;;;105.47;28.85;;;;;;;;;;5013395;28;20108;-67
2023/04/17 06:04:44;;;;;;;154.55;31.25;;;;;;;;;;5013280;28;20405;-68
2023/04/17 06:07:10;;;;;;;130.50;27.75;;;;;;;;;;5013036;28;20068;-67
2023/04/17 06:09:37;;;;;;;79.57;25.10;;;8.00;99.90;;;;;;5015319;28;20033;-67
2023/04/17 06:12:03;;;;;;;145.93;30.52;;;8.10;99.90;;;;;;5018939;28;20045;-67
2023/04/17 06:14:29;;;;;;;92.47;23.95;;;8.00;99.90;;;;;;5013296;28;20095;-68
2023/04/17 06:16:56;;;;;;;131.98;27.85;;;8.10;99.90;;;;;;4996590;28;20037;-68
2023/04/17 06:19:22;;;;;;;129.95;29.98;;;8.10;99.90;;;;;;5013230;28;20041;-68
2023/04/17 06:21:48;;;;;;;64.90;24.75;;;8.50;99.90;;;;;;4997395;28;20120;-68
2023/04/17 06:24:13;;;;;;;70.28;26.88;;;8.40;99.90;;;;;;4997045;28;20472;-68
2023/04/17 06:26:39;;;;;;;91.70;27.65;;;;;;;;;;4997517;28;20053;-68
2023/04/17 06:29:05;;;;;;;94.85;27.75;;;;;;;;;;5013718;28;20042;-68
2023/04/17 06:31:31;;;;;;;55.70;23.65;;;;;;;;;;5008701;28;20115;-68
2023/04/17 06:33:57;;;;;;;72.68;26.25;;;;;;;;;;5009929;28;20500;-68
2023/04/17 06:36:23;;;;;;;65.63;27.63;;;;;;;;;;4993356;28;20131;-68
2023/04/17 06:38:49;;;;;;;67.22;26.85;;;;;;;;;;5001070;28;20073;-68
2023/04/17 06:41:15;;;;;;;62.85;25.90;;;;;;;;;;5002878;28;20037;-68
2023/04/17 06:43:41;;;;;;;64.72;26.83;;;;;;;;;;5003005;28;20045;-68
2023/04/17 06:46:07;;;;;;;70.50;25.98;;;;;;;;;;4999943;28;20180;-68
2023/04/17 06:48:33;;;;;;;65.65;25.80;;;;;;;;;;5008474;28;20420;-68
2023/04/17 06:50:59;;;;;;;65.63;26.88;;;8.70;99.90;;;;;;5013645;28;20052;-68
2023/04/17 06:53:25;;;;;;;74.20;27.73;;;;;;;;;;5012579;28;20512;-68
2023/04/17 06:55:53;;;;;;;55.30;24.95;;;;;;;;;;4997601;28;20042;-68
2023/04/17 06:58:19;;;;;;;59.05;24.60;;;;;;;;;;5009774;28;20045;-67
2023/04/17 07:00:45;;;;;;;55.53;24.75;;;;;;;;;;5012175;28;20516;-68
2023/04/17 07:03:13;;;;;;;55.25;25.42;;;;;;;;;;5012535;28;20053;-68
2023/04/17 07:05:40;;;;;;;64.93;26.20;;;;;;;;;;5009929;28;20041;-68
2023/04/17 07:08:06;;;;;;;60.63;25.55;;;;;;;;;;4991694;28;20045;-68
2023/04/17 07:10:32;;;;;;;58.35;24.95;;;;;;;;;;4988826;28;20115;-70
2023/04/17 07:12:58;;;;;;;54.63;24.40;;;;;;;;;;5008797;28;20049;-68
2023/04/17 07:15:29;;;;;;;52.15;23.55;;;;;;;;;;5011862;28;20050;-68
2023/04/17 07:17:54;;;;;;;49.72;21.58;;;9.30;99.90;;;;;;5011744;28;20052;-68
2023/04/17 07:20:20;;;;;;;47.63;23.10;;;;;;;;;;5012607;28;20037;-68
2023/04/17 07:22:48;;;;;;;46.08;23.35;;;;;;;;;;5022884;28;20029;-68
2023/04/17 07:25:14;;;;;;;47.28;20.90;;;;;;;;;;5031003;28;20053;-67
2023/04/17 07:27:41;;;;;;;45.13;21.65;;;;;;;;;;5014631;28;20124;-68
2023/04/17 07:30:07;;;;;;;48.95;23.13;;;9.30;99.90;;;;;;5020087;28;20532;-68
2023/04/17 07:32:33;;;;;;;47.55;22.83;;;;;;;;;;5032584;28;20041;-68
2023/04/17 07:34:59;;;;;;;43.10;20.48;;;;;;;;;;5011791;28;20052;-68
2023/04/17 07:37:24;;;;;;;39.63;20.88;;;9.20;99.90;;;;;;5015801;28;20041;-68
2023/04/17 07:39:51;;;;;;;43.25;20.17;;;9.30;99.90;;;;;;5015589;28;20033;-68
2023/04/17 07:42:17;;;;;;;47.40;24.20;;;;;;;;;;5015939;28;20061;-68
2023/04/17 07:44:43;;;;;;;38.20;20.88;;;9.20;99.90;;;;;;4999741;28;20029;-67
2023/04/17 07:47:08;;;;;;;36.05;19.08;;;9.40;99.90;;;;;;5015405;28;20045;-68
2023/04/17 07:49:34;;;;;;;35.05;20.10;;;9.50;99.90;;;;;;5016236;28;20052;-68
2023/04/17 07:52:00;;;;;;;35.35;19.00;;;9.60;99.90;;;;;;5015234;28;20128;-68
2023/04/17 07:54:26;;;;;;;30.92;18.55;;;;;;;;;;5018873;28;20044;-68
2023/04/17 07:56:52;;;;;;;31.20;18.23;;;;;;;;;;4998368;28;20099;-68
2023/04/17 07:59:18;;;;;;;30.17;17.35;;;;;;;;;;5024347;28;20564;-68
2023/04/17 08:01:44;;;;;;;31.67;18.70;;;;;;;;;;5014902;28;20034;-68
2023/04/17 08:04:09;;;;;;;34.45;20.02;;;9.40;99.90;;;;;;5013862;28;20037;-67
2023/04/17 08:06:35;;;;;;;33.08;18.08;;;9.30;99.90;;;;;;5014433;28;20042;-67
2023/04/17 08:09:01;;;;;;;33.88;18.95;;;9.60;99.90;;;;;;5014246;28;20037;-70
2023/04/17 08:11:27;;;;;;;35.35;19.90;;;9.50;99.90;;;;;;5014102;28;20041;-70
2023/04/17 08:13:54;;;;;;;36.08;21.00;;;9.60;99.90;;;;;;5014803;28;20120;-67
2023/04/17 08:16:20;;;;;;;38.67;22.02;;;9.90;99.90;;;;;;4997026;28;20552;-67
2023/04/17 08:18:46;;;;;;;40.47;22.98;;;;;;;;;;5000142;28;20133;-67
2023/04/17 08:21:11;;;;;;;36.45;21.63;;;10.10;99.90;;;;;;5024613;28;20036;-67
2023/04/17 08:23:37;;;;;;;36.20;20.75;;;;;;;;;;5004923;28;20408;-68
2023/04/17 08:26:03;;;;;;;35.45;20.77;;;;;;;;;;5014225;28;20037;-70
2023/04/17 08:28:29;;;;;;;36.42;22.30;;;10.00;99.90;;;;;;4998567;28;20040;-67
2023/04/17 08:30:56;;;;;;;36.97;22.23;;;;;;;;;;5025316;28;20405;-68
2023/04/17 08:33:21;;;;;;;32.90;20.70;;;10.10;99.90;;;;;;5025260;28;20041;-68
2023/04/17 08:35:47;;;;;;;32.22;20.08;;;;;;;;;;5023574;28;20412;-68
2023/04/17 08:38:14;;;;;;;33.15;20.30;;;;;;;;;;5007228;28;20049;-68
2023/04/17 08:40:41;;;;;;;33.45;20.27;;;10.90;99.90;;;;;;5023601;28;20437;-68
2023/04/17 08:43:18;;;;;;;32.28;20.75;;;11.00;99.90;;;;;;5031291;28;20044;-68
2023/04/17 08:45:53;;;;;;;33.25;19.65;;;10.80;99.90;;;;;;5008578;28;20080;-68
2023/04/17 08:48:20;;;;;;;30.65;19.58;;;11.10;99.90;;;;;;5014023;28;20049;-70
2023/04/17 08:50:51;;;;;;;26.85;18.00;;;11.10;99.90;;;;;;5014166;28;20045;-69
2023/04/17 08:53:18;;;;;;;28.60;18.67;;;11.20;99.90;;;;;;5022657;28;20041;-69
2023/04/17 08:55:47;;;;;;;30.88;19.58;;;11.40;99.90;;;;;;5023684;28;20048;-70
2023/04/17 08:58:13;;;;;;;26.98;17.92;;;10.90;99.90;;;;;;5013511;28;20536;-69
2023/04/17 09:00:43;;;;;;;29.58;17.00;;;11.50;99.90;;;;;;5014194;28;20041;-69
2023/04/17 09:03:11;;;;;;;25.02;17.23;;;11.70;99.90;;;;;;5011915;28;20037;-69
2023/04/17 09:05:40;;;;;;;25.88;17.85;;;12.10;99.90;;;;;;4997297;28;20527;-69
2023/04/17 09:08:20;;;;;;;30.15;19.15;;;12.00;99.90;;;;;;4997475;28;20064;-69
2023/04/17 09:10:48;;;;;;;28.85;18.67;;;12.40;99.90;;;;;;5012928;28;20222;-69
2023/04/17 09:13:15;;;;;;;25.60;17.17;;;12.50;99.90;;;;;;4997203;28;20077;-69
2023/04/17 09:15:43;;;;;;;25.88;17.60;;;12.50;99.90;;;;;;5013032;28;20029;-69
2023/04/17 09:18:25;;;;;;;22.80;16.85;;;12.40;99.90;;;;;;5013654;28;20411;-69
2023/04/17 09:20:52;;;;;;;22.80;17.40;;;12.80;99.90;;;;;;4997200;28;20138;-69
2023/04/17 09:23:18;;;;;;;27.08;18.02;;;12.60;99.90;;;;;;5014541;28;20041;-69
2023/04/17 09:25:45;;;;;;;24.50;16.52;;;12.60;99.90;;;;;;5014058;28;20084;-69
2023/04/17 09:28:15;;;;;;;21.98;15.07;;;12.70;99.90;;;;;;5012942;28;20605;-69
2023/04/17 09:30:41;;;;;;;22.10;15.80;;;;;;;;;;5012539;28;20115;-69
2023/04/17 09:33:08;;;;;;;19.83;15.68;;;12.00;99.90;;;;;;4996754;28;20513;-69
2023/04/17 09:35:37;;;;;;;25.20;17.13;;;12.50;99.90;;;;;;5014123;28;20512;-69
2023/04/17 09:38:03;;;;;;;26.83;18.40;;;12.60;99.90;;;;;;4997712;28;20042;-68
2023/04/17 09:40:39;;;;;;;22.00;16.45;;;12.40;99.90;;;;;;5013829;28;20037;-68
2023/04/17 09:43:09;;;;;;;22.77;16.48;;;12.90;99.90;;;;;;5013902;28;20044;-68
2023/04/17 09:45:38;;;;;;;24.05;17.05;;;13.00;99.90;;;;;;5013612;28;20088;-67
2023/04/17 09:48:06;;;;;;;19.65;14.75;;;;;;;;;;4996870;28;20041;-68
2023/04/17 09:50:32;;;;;;;21.52;14.18;;;13.80;99.90;;;;;;5014011;28;20099;-67
2023/04/17 09:52:58;;;;;;;21.48;15.73;;;;;;;;;;5013081;28;20033;-68
2023/04/17 09:55:31;;;;;;;17.15;13.02;;;14.20;99.90;;;;;;5013789;28;20045;-68
2023/04/17 09:58:00;;;;;;;16.48;13.00;;;14.20;99.90;;;;;;5013013;28;20045;-68
2023/04/17 10:00:26;;;;;;;17.33;13.13;;;14.30;99.90;;;;;;4997554;28;20095;-68
2023/04/17 10:02:53;;;;;;;15.88;12.20;;;13.90;99.90;;;;;;5012917;28;20042;-67
2023/04/17 10:05:20;;;;;;;18.33;12.93;;;13.60;99.90;;;;;;5013826;28;20507;-68
2023/04/17 10:07:46;;;;;;;16.45;12.27;;;13.80;99.90;;;;;;4997309;28;20045;-68
2023/04/17 10:10:21;;;;;;;16.58;12.80;;;13.90;99.90;;;;;;5012941;28;20052;-68
2023/04/17 10:12:48;;;;;;;16.55;13.00;;;14.00;99.90;;;;;;5012943;28;20074;-68
2023/04/17 10:15:15;;;;;;;18.42;13.40;;;;;;;;;;5013051;28;20045;-68
2023/04/17 10:17:41;;;;;;;17.00;12.98;;;;;;;;;;4996623;28;20120;-68
2023/04/17 10:20:22;;;;;;;21.60;14.30;;;14.40;99.90;;;;;;5013491;28;20423;-68
2023/04/17 10:22:54;;;;;;;19.30;14.02;;;14.50;99.90;;;;;;5011749;28;20048;-68
2023/04/17 10:25:25;;;;;;;18.05;13.88;;;13.80;99.90;;;;;;5016672;28;20073;-68
2023/04/17 10:28:09;;;;;;;18.45;14.25;;;14.20;99.90;;;;;;5025953;28;20041;-68
2023/04/17 10:31:01;;;;;;;20.48;14.52;;;14.50;99.90;;;;;;5029507;28;20071;-68
2023/04/17 10:33:27;;;;;;;19.75;14.48;;;;;;;;;;5026363;28;20044;-68
2023/04/17 10:35:54;;;;;;;19.90;14.23;;;14.40;99.90;;;;;;5021308;28;20120;-69
2023/04/17 10:38:34;;;;;;;16.08;13.38;;;14.40;99.90;;;;;;5018510;28;20128;-68
2023/04/17 10:41:07;;;;;;;16.98;13.30;;;14.70;99.90;;;;;;5019508;28;20040;-68
2023/04/17 10:43:32;;;;;;;18.63;12.85;;;14.60;99.90;;;;;;5019210;28;20045;-68
2023/04/17 10:46:09;;;;;;;22.23;12.43;;;14.30;99.90;;;;;;5038852;28;20124;-68
2023/04/17 10:48:37;;;;;;;19.17;12.38;;;14.60;99.90;;;;;;5027864;28;20099;-68
2023/04/17 10:51:23;;;;;;;16.55;11.60;;;14.60;99.90;;;;;;5024895;28;20049;-68
2023/04/17 10:54:00;;;;;;;17.23;11.98;;;14.60;99.90;;;;;;4999794;28;20046;-69
2023/04/17 10:56:38;;;;;;;14.82;11.57;;;14.70;99.90;;;;;;5001738;28;20046;-68
2023/04/17 10:59:11;;;;;;;15.98;12.98;;;14.60;99.90;;;;;;5019051;28;20045;-68
2023/04/17 11:01:46;;;;;;;18.92;11.50;;;15.10;99.90;;;;;;5015796;28;20445;-68
2023/04/17 11:04:22;;;;;;;13.93;11.00;;;14.90;99.90;;;;;;5020314;28;20448;-68
2023/04/17 11:06:48;;;;;;;13.63;11.70;;;;;;;;;;5012723;28;20041;-67
2023/04/17 11:09:14;;;;;;;16.52;12.00;;;14.80;99.90;;;;;;5015174;28;20103;-68
2023/04/17 11:11:42;;;;;;;17.75;12.60;;;14.70;99.90;;;;;;5016220;28;20128;-68
2023/04/17 11:14:19;;;;;;;16.35;12.57;;;15.10;99.90;;;;;;5020339;28;20037;-67
2023/04/17 11:16:46;;;;;;;18.52;12.57;;;15.40;99.90;;;;;;5015878;28;20041;-68
2023/04/17 11:19:17;;;;;;;17.40;12.98;;;15.10;99.90;;;;;;5010865;28;20051;-67
2023/04/17 11:21:44;;;;;;;20.58;13.25;;;15.30;99.90;;;;;;5017878;28;20400;-68
2023/04/17 11:24:10;;;;;;;19.05;12.45;;;;;;;;;;5013524;28;20053;-68
2023/04/17 11:26:43;;;;;;;18.98;13.57;;;15.10;99.90;;;;;;5009985;28;20037;-69
2023/04/17 11:29:17;;;;;;;16.13;12.80;;;15.00;99.90;;;;;;5016617;28;20476;-67
2023/04/17 11:31:44;;;;;;;15.48;12.05;;;14.60;99.90;;;;;;5018702;28;20520;-67
2023/04/17 11:34:11;;;;;;;17.00;12.65;;;;;;;;;;5019036;28;20049;-67
2023/04/17 11:36:37;;;;;;;15.43;12.73;;;;;;;;;;5016666;28;20135;-67
2023/04/17 11:39:03;;;;;;;17.92;12.18;;;15.30;99.90;;;;;;5016192;28;20042;-68
2023/04/17 11:41:39;;;;;;;15.95;11.73;;;15.00;99.90;;;;;;5016436;28;20037;-68
2023/04/17 11:44:21;;;;;;;18.67;13.07;;;15.20;99.90;;;;;;4999132;28;20088;-67
2023/04/17 11:46:59;;;;;;;18.70;13.27;;;14.70;99.90;;;;;;4999382;28;20516;-68
2023/04/17 11:49:26;;;;;;;16.90;13.90;;;14.80;99.90;;;;;;4999821;28;20553;-67
2023/04/17 11:51:53;;;;;;;18.23;14.73;;;14.90;99.90;;;;;;5015453;28;20115;-68
2023/04/17 11:54:25;;;;;;;18.15;13.48;;;14.70;99.90;;;;;;5016176;28;20497;-68
2023/04/17 11:57:20;;;;;;;20.40;13.87;;;14.60;99.90;;;;;;5015344;28;20045;-68
2023/04/17 11:59:46;;;;;;;19.77;13.10;;;;;;;;;;5007328;28;20054;-67
2023/04/17 12:02:13;;;;;;;23.38;14.23;;;;;;;;;;5015457;28;20072;-67
2023/04/17 12:04:39;;;;;;;22.15;15.35;;;15.20;99.90;;;;;;4999253;28;20119;-67
2023/04/17 12:07:06;;;;;;;22.83;16.13;;;15.30;99.90;;;;;;5020959;28;20516;-67
2023/04/17 12:09:33;;;;;;;23.95;16.48;;;15.50;99.90;;;;;;5023612;28;20037;-67
2023/04/17 12:12:06;;;;;;;23.10;16.50;;;15.60;99.90;;;;;;5025266;28;20049;-67
2023/04/17 12:14:31;;;;;;;24.02;16.38;;;15.20;99.90;;;;;;5014870;28;20417;-67
2023/04/17 12:16:58;;;;;;;21.52;15.30;;;;;;;;;;5015476;28;20044;-68
2023/04/17 12:19:28;;;;;;;23.52;15.15;;;16.00;99.90;;;;;;5015926;28;20048;-67
2023/04/17 12:21:55;;;;;;;24.27;16.02;;;;;;;;;;5014508;28;20033;-67
2023/04/17 12:24:23;;;;;;;24.58;15.30;;;;;;;;;;5015017;28;20041;-68
2023/04/17 12:26:49;;;;;;;18.73;14.05;;;16.10;99.90;;;;;;5014732;28;20040;-68
2023/04/17 12:29:15;;;;;;;22.45;15.00;;;16.10;99.90;;;;;;5014376;28;20045;-67
2023/04/17 12:31:42;;;;;;;20.73;13.68;;;16.20;99.90;;;;;;5018084;28;20115;-68
2023/04/17 12:34:08;;;;;;;19.85;14.77;;;;;;;;;;5019442;28;20045;-68
2023/04/17 12:36:34;;;;;;;20.52;15.52;;;;;;;;;;5017022;28;20141;-66
2023/04/17 12:39:00;;;;;;;19.40;14.25;;;;;;;;;;5023366;28;20040;-70
2023/04/17 12:41:26;;;;;;;20.27;14.70;;;;;;;;;;5014337;28;20037;-68
2023/04/17 12:43:53;;;;;;;20.67;14.43;;;16.50;99.90;;;;;;5014962;28;20046;-67
2023/04/17 12:46:20;;;;;;;21.42;15.25;;;16.30;99.90;;;;;;5014275;28;20088;-67
2023/04/17 12:48:45;;;;;;;23.20;15.40;;;16.50;99.90;;;;;;5013924;28;20092;-67
2023/04/17 12:51:11;;;;;;;24.42;16.60;;;16.00;99.90;;;;;;5015044;28;20052;-67
2023/04/17 12:53:37;;;;;;;19.65;14.15;;;16.30;99.90;;;;;;5014052;28;20045;-67
2023/04/17 12:56:02;;;;;;;18.88;15.02;;;16.30;99.90;;;;;;4998105;28;20417;-67
2023/04/17 12:58:28;;;;;;;20.20;16.10;;;16.00;99.90;;;;;;5013676;28;20060;-67
2023/04/17 13:00:54;;;;;;;24.13;16.10;;;16.20;99.90;;;;;;5013439;28;20092;-67
2023/04/17 13:03:19;;;;;;;18.92;14.80;;;16.30;99.90;;;;;;5032125;28;20497;-67
2023/04/17 13:05:45;;;;;;;18.77;15.13;;;;;;;;;;5014177;28;20037;-67
2023/04/17 13:08:13;;;;;;;20.88;15.57;;;;;;;;;;5014555;28;20038;-67